createdAt,value
2018-03-18T00:01:41.997Z,9.43
2018-03-18T00:04:10.428Z,9.53
2018-03-18T00:06:38.901Z,9.67
2018-03-18T00:09:07.313Z,8.17
2018-03-18T00:11:35.741Z,16.97
2018-03-18T00:14:04.215Z,13.63
2018-03-18T00:16:32.624Z,17.20
2018-03-18T00:19:01.044Z,17.20
2018-03-18T00:21:29.498Z,12.20
2018-03-18T00:23:57.915Z,14.57
2018-03-18T00:26:26.325Z,19.53
2018-03-18T00:28:54.775Z,11.90
2018-03-18T00:31:23.187Z,8.53
2018-03-18T00:33:51.598Z,12.30
2018-03-18T00:36:20.042Z,9.33
2018-03-18T00:38:48.468Z,10.57
2018-03-18T00:41:16.884Z,8.43
2018-03-18T00:43:45.348Z,10.50
2018-03-18T00:46:13.763Z,10.70
2018-03-18T00:48:42.192Z,11.23
2018-03-18T00:51:10.692Z,11.07
2018-03-18T00:53:39.112Z,9.37
2018-03-18T00:56:07.513Z,8.03
2018-03-18T00:58:35.961Z,10.37
2018-03-18T01:01:04.366Z,10.23
2018-03-18T01:03:32.778Z,6.07
2018-03-18T01:06:01.221Z,11.73
2018-03-18T01:08:29.640Z,12.03
2018-03-18T01:10:58.050Z,9.40
2018-03-18T01:13:26.519Z,9.37
2018-03-18T01:15:54.941Z,11.40
2018-03-18T01:18:23.360Z,8.43
2018-03-18T01:20:51.824Z,10.37
2018-03-18T01:23:20.244Z,10.53
2018-03-18T01:25:48.648Z,9.53
2018-03-18T01:28:17.099Z,10.20
2018-03-18T01:30:45.510Z,12.93
2018-03-18T01:33:13.929Z,10.77
2018-03-18T01:35:42.390Z,10.87
2018-03-18T01:38:10.802Z,8.50
2018-03-18T01:40:39.210Z,9.47
2018-03-18T01:43:07.681Z,9.53
2018-03-18T01:45:36.100Z,10.17
2018-03-18T01:48:04.529Z,6.45
2018-03-18T01:50:33.012Z,8.52
2018-03-18T01:53:13.272Z,10.70
2018-03-18T01:55:41.722Z,9.02
2018-03-18T01:58:10.128Z,5.73
2018-03-18T02:00:38.547Z,8.45
2018-03-18T02:03:07.015Z,9.82
2018-03-18T02:05:35.450Z,12.95
2018-03-18T02:08:03.885Z,8.70
2018-03-18T02:10:32.340Z,10.25
2018-03-18T02:13:00.772Z,7.53
2018-03-18T02:15:29.194Z,10.68
2018-03-18T02:17:57.672Z,8.55
2018-03-18T02:20:26.106Z,10.65
2018-03-18T02:22:54.547Z,9.07
2018-03-18T02:25:23.024Z,11.03
2018-03-18T02:27:51.453Z,9.27
2018-03-18T02:30:19.869Z,10.87
2018-03-18T02:32:48.324Z,8.77
2018-03-18T02:35:16.738Z,11.13
2018-03-18T02:37:45.149Z,9.50
2018-03-18T02:40:13.629Z,12.15
2018-03-18T02:42:42.042Z,8.77
2018-03-18T02:45:10.463Z,12.52
2018-03-18T02:47:38.938Z,9.80
2018-03-18T02:50:07.369Z,10.45
2018-03-18T02:52:35.796Z,9.93
2018-03-18T02:55:04.294Z,9.67
2018-03-18T02:57:32.709Z,11.97
2018-03-18T03:00:01.125Z,12.53
2018-03-18T03:02:29.583Z,10.07
2018-03-18T03:04:58.003Z,15.40
2018-03-18T03:07:26.423Z,9.32
2018-03-18T03:09:54.889Z,12.50
2018-03-18T03:12:23.298Z,9.20
2018-03-18T03:14:51.724Z,15.18
2018-03-18T03:17:20.206Z,10.73
2018-03-18T03:19:48.622Z,12.13
2018-03-18T03:22:17.057Z,8.88
2018-03-18T03:24:45.528Z,15.00
2018-03-18T03:27:13.956Z,6.60
2018-03-18T03:29:42.393Z,10.77
2018-03-18T03:32:10.847Z,13.35
2018-03-18T03:34:39.268Z,7.22
2018-03-18T03:37:07.678Z,10.73
2018-03-18T03:39:36.136Z,13.90
2018-03-18T03:42:04.608Z,10.23
2018-03-18T03:44:33.022Z,7.25
2018-03-18T03:47:01.500Z,9.90
2018-03-18T03:49:29.926Z,13.80
2018-03-18T03:51:58.354Z,11.52
2018-03-18T03:54:26.803Z,8.48
2018-03-18T03:56:55.224Z,11.35
2018-03-18T03:59:23.656Z,20.30
2018-03-18T04:01:52.122Z,11.30
2018-03-18T04:04:20.530Z,8.07
2018-03-18T04:06:48.947Z,8.75
2018-03-18T04:09:17.393Z,6.75
2018-03-18T04:11:45.798Z,9.77
2018-03-18T04:14:14.219Z,6.22
2018-03-18T04:16:42.670Z,9.43
2018-03-18T04:19:11.093Z,14.98
2018-03-18T04:21:39.515Z,9.00
2018-03-18T04:24:08.067Z,9.70
2018-03-18T04:26:36.491Z,9.45
2018-03-18T04:29:04.913Z,7.45
2018-03-18T04:31:33.394Z,7.97
2018-03-18T04:34:01.820Z,12.85
2018-03-18T04:36:30.234Z,13.05
2018-03-18T04:38:58.700Z,14.45
2018-03-18T04:41:27.127Z,8.40
2018-03-18T04:43:55.546Z,12.77
2018-03-18T04:46:24.024Z,12.43
2018-03-18T04:48:52.447Z,10.07
2018-03-18T04:51:20.858Z,9.07
2018-03-18T04:53:49.314Z,10.10
2018-03-18T04:56:17.727Z,13.57
2018-03-18T04:58:46.147Z,9.60
2018-03-18T05:01:14.598Z,15.75
2018-03-18T05:03:43.020Z,10.77
2018-03-18T05:06:11.477Z,10.77
2018-03-18T05:08:39.938Z,10.10
2018-03-18T05:11:08.358Z,9.38
2018-03-18T05:13:36.781Z,10.07
2018-03-18T05:16:05.260Z,8.07
2018-03-18T05:18:33.684Z,10.38
2018-03-18T05:21:02.105Z,12.93
2018-03-18T05:23:30.550Z,8.93
2018-03-18T05:25:58.958Z,9.55
2018-03-18T05:28:27.376Z,6.82
2018-03-18T05:30:55.822Z,11.75
2018-03-18T05:33:24.248Z,14.23
2018-03-18T05:35:52.669Z,8.40
2018-03-18T05:38:21.139Z,7.25
2018-03-18T05:40:49.562Z,10.95
2018-03-18T05:43:17.977Z,10.45
2018-03-18T05:45:46.430Z,14.02
2018-03-18T05:48:14.842Z,12.18
2018-03-18T05:50:43.259Z,6.85
2018-03-18T05:53:11.715Z,10.95
2018-03-18T05:55:40.123Z,8.68
2018-03-18T05:58:08.526Z,5.35
2018-03-18T06:00:36.996Z,11.63
2018-03-18T06:03:05.413Z,8.60
2018-03-18T06:05:33.840Z,12.90
2018-03-18T06:08:02.319Z,21.80
2018-03-18T06:10:30.736Z,9.77
2018-03-18T06:12:59.160Z,12.00
2018-03-18T06:15:27.626Z,10.35
2018-03-18T06:17:56.069Z,9.90
2018-03-18T06:20:24.496Z,8.38
2018-03-18T06:22:52.942Z,9.32
2018-03-18T06:25:21.345Z,8.50
2018-03-18T06:27:49.754Z,10.52
2018-03-18T06:30:18.247Z,8.82
2018-03-18T06:32:46.662Z,9.13
2018-03-18T06:35:15.079Z,9.63
2018-03-18T06:37:43.542Z,8.57
2018-03-18T06:40:11.960Z,7.05
2018-03-18T06:42:40.416Z,11.57
2018-03-18T06:45:08.892Z,9.95
2018-03-18T06:47:37.332Z,6.12
2018-03-18T06:50:05.748Z,7.82
2018-03-18T06:52:34.216Z,9.63
2018-03-18T06:55:02.622Z,8.60
2018-03-18T06:57:31.040Z,5.75
2018-03-18T06:59:59.504Z,6.90
2018-03-18T07:02:27.939Z,9.90
2018-03-18T07:04:56.356Z,9.25
2018-03-18T07:07:24.848Z,8.90
2018-03-18T07:09:53.538Z,8.88
2018-03-18T07:12:21.941Z,6.80
2018-03-18T07:14:50.385Z,8.07
2018-03-18T07:17:18.802Z,7.90
2018-03-18T07:19:47.210Z,7.97
2018-03-18T07:22:15.659Z,4.87
2018-03-18T07:24:44.074Z,9.15
2018-03-18T07:27:12.486Z,6.37
2018-03-18T07:29:40.960Z,8.25
2018-03-18T07:32:09.389Z,7.97
2018-03-18T07:34:37.798Z,4.18
2018-03-18T07:37:06.257Z,5.20
2018-03-18T07:39:34.674Z,8.05
2018-03-18T07:42:03.115Z,9.45
2018-03-18T07:44:31.567Z,6.35
2018-03-18T07:46:59.978Z,6.37
2018-03-18T07:49:28.396Z,6.93
2018-03-18T07:51:56.855Z,8.30
2018-03-18T07:54:25.261Z,8.02
2018-03-18T07:56:53.661Z,6.85
2018-03-18T07:59:22.114Z,4.45
2018-03-18T08:01:50.538Z,4.75
2018-03-18T08:04:18.941Z,7.25
2018-03-18T08:06:47.402Z,4.82
2018-03-18T08:09:15.806Z,7.85
2018-03-18T08:11:44.224Z,7.00
2018-03-18T08:14:12.713Z,4.85
2018-03-18T08:16:41.136Z,5.80
2018-03-18T08:19:09.559Z,4.32
2018-03-18T08:21:38.032Z,6.62
2018-03-18T08:24:06.459Z,9.10
2018-03-18T08:26:34.916Z,7.93
2018-03-18T08:29:03.380Z,11.02
2018-03-18T08:31:31.791Z,8.07
2018-03-18T08:34:00.210Z,7.47
2018-03-18T08:36:28.676Z,8.77
2018-03-18T08:38:57.090Z,6.60
2018-03-18T08:41:25.512Z,8.88
2018-03-18T08:43:54.005Z,28.92
2018-03-18T08:46:22.430Z,48.00
2018-03-18T08:48:50.847Z,57.92
2018-03-18T08:51:19.313Z,53.60
2018-03-18T08:53:47.738Z,36.90
2018-03-18T08:56:16.167Z,43.95
2018-03-18T08:58:44.634Z,25.43
2018-03-18T09:01:13.072Z,23.27
2018-03-18T09:03:41.492Z,25.07
2018-03-18T09:06:09.965Z,19.27
2018-03-18T09:08:38.378Z,17.40
2018-03-18T09:11:06.795Z,18.60
2018-03-18T09:13:35.258Z,23.00
2018-03-18T09:16:03.683Z,10.13
2018-03-18T09:18:32.100Z,13.97
2018-03-18T09:21:00.565Z,13.43
2018-03-18T09:23:29.010Z,27.52
2018-03-18T09:25:57.436Z,13.43
2018-03-18T09:28:25.886Z,21.20
2018-03-18T09:30:54.294Z,10.70
2018-03-18T09:33:22.702Z,16.80
2018-03-18T09:35:51.145Z,22.03
2018-03-18T09:38:19.573Z,18.77
2018-03-18T09:40:47.986Z,12.03
2018-03-18T09:43:17.078Z,7.10
2018-03-18T09:45:45.486Z,10.17
2018-03-18T09:48:13.881Z,6.23
2018-03-18T09:50:42.336Z,8.30
2018-03-18T09:53:10.757Z,5.07
2018-03-18T09:55:39.162Z,8.87
2018-03-18T09:58:07.607Z,8.83
2018-03-18T10:00:36.020Z,8.10
2018-03-18T10:03:04.423Z,6.50
2018-03-18T10:05:32.887Z,7.00
2018-03-18T10:08:01.304Z,7.67
2018-03-18T10:10:29.734Z,9.63
2018-03-18T10:12:58.327Z,7.37
2018-03-18T10:15:26.723Z,7.10
2018-03-18T10:17:55.159Z,7.67
2018-03-18T10:20:23.647Z,9.53
2018-03-18T10:22:52.078Z,4.97
2018-03-18T10:25:20.510Z,6.67
2018-03-18T10:27:48.958Z,6.07
2018-03-18T10:30:17.361Z,5.60
2018-03-18T10:32:45.763Z,4.13
2018-03-18T10:35:14.334Z,6.87
2018-03-18T10:37:42.750Z,8.97
2018-03-18T10:40:11.168Z,4.43
2018-03-18T10:42:39.632Z,9.50
2018-03-18T10:45:08.033Z,5.97
2018-03-18T10:47:36.442Z,7.40
2018-03-18T10:50:04.919Z,5.13
2018-03-18T10:52:33.332Z,4.73
2018-03-18T10:55:01.892Z,10.47
2018-03-18T10:57:30.338Z,6.47
2018-03-18T10:59:58.738Z,7.20
2018-03-18T11:02:27.157Z,3.63
2018-03-18T11:04:55.610Z,8.73
2018-03-18T11:07:24.028Z,5.13
2018-03-18T11:09:52.437Z,6.13
2018-03-18T11:12:20.888Z,7.07
2018-03-18T11:14:49.300Z,7.80
2018-03-18T11:17:17.724Z,7.80
2018-03-18T11:19:46.176Z,7.63
2018-03-18T11:22:14.613Z,5.80
2018-03-18T11:24:43.028Z,9.70
2018-03-18T11:27:11.526Z,8.80
2018-03-18T11:29:40.131Z,6.60
2018-03-18T11:32:08.533Z,5.90
2018-03-18T11:34:37.003Z,9.30
2018-03-18T11:37:05.420Z,5.73
2018-03-18T11:39:33.845Z,8.67
2018-03-18T11:42:02.299Z,9.00
2018-03-18T11:44:30.750Z,9.50
2018-03-18T11:46:59.153Z,5.40
2018-03-18T11:49:27.607Z,7.33
2018-03-18T11:51:56.021Z,6.53
2018-03-18T11:54:24.525Z,5.80
2018-03-18T11:56:52.922Z,5.73
2018-03-18T11:59:21.328Z,6.63
2018-03-18T12:01:49.751Z,10.70
2018-03-18T12:04:18.216Z,7.73
2018-03-18T12:06:46.636Z,8.77
2018-03-18T12:09:15.039Z,4.87
2018-03-18T12:11:43.488Z,7.90
2018-03-18T12:14:11.916Z,10.53
2018-03-18T12:16:40.333Z,3.93
2018-03-18T12:19:08.792Z,5.40
2018-03-18T12:21:37.223Z,5.30
2018-03-18T12:24:05.630Z,9.37
2018-03-18T12:26:34.085Z,7.27
2018-03-18T12:29:02.516Z,7.70
2018-03-18T12:31:30.928Z,8.33
2018-03-18T12:33:59.380Z,8.23
2018-03-18T12:36:27.796Z,10.10
2018-03-18T12:38:56.212Z,10.20
2018-03-18T12:41:24.688Z,10.27
2018-03-18T12:43:53.094Z,8.50
2018-03-18T12:46:21.538Z,5.37
2018-03-18T12:48:49.993Z,7.40
2018-03-18T12:51:18.410Z,5.37
2018-03-18T12:53:46.844Z,9.80
2018-03-18T12:56:15.298Z,7.93
2018-03-18T12:58:43.699Z,10.17
2018-03-18T13:01:12.118Z,13.23
2018-03-18T13:03:40.562Z,9.97
2018-03-18T13:06:08.975Z,12.80
2018-03-18T13:08:37.388Z,11.53
2018-03-18T13:11:05.829Z,5.47
2018-03-18T13:13:34.222Z,8.57
2018-03-18T13:16:02.618Z,6.37
2018-03-18T13:18:31.078Z,14.60
2018-03-18T13:20:59.474Z,8.53
2018-03-18T13:23:27.873Z,11.73
2018-03-18T13:25:56.324Z,7.43
2018-03-18T13:28:24.728Z,7.73
2018-03-18T13:30:53.140Z,4.67
2018-03-18T13:33:21.591Z,4.50
2018-03-18T13:35:49.986Z,9.23
2018-03-18T13:38:18.386Z,11.43
2018-03-18T13:40:46.834Z,6.30
2018-03-18T13:43:16.143Z,9.07
2018-03-18T13:45:44.545Z,12.07
2018-03-18T13:48:12.992Z,8.17
2018-03-18T13:50:41.405Z,6.47
2018-03-18T13:53:09.813Z,4.37
2018-03-18T13:55:38.258Z,5.43
2018-03-18T13:58:06.664Z,8.67
2018-03-18T14:00:35.058Z,8.67
2018-03-18T14:03:03.499Z,8.97
2018-03-18T14:05:31.929Z,5.40
2018-03-18T14:08:00.326Z,4.83
2018-03-18T14:10:28.767Z,5.07
2018-03-18T14:12:57.175Z,4.63
2018-03-18T14:15:25.579Z,8.80
2018-03-18T14:17:54.033Z,8.50
2018-03-18T14:20:22.478Z,8.77
2018-03-18T14:22:50.878Z,8.27
2018-03-18T14:25:19.322Z,13.80
2018-03-18T14:27:47.728Z,6.33
2018-03-18T14:30:16.131Z,10.23
2018-03-18T14:32:44.600Z,4.20
2018-03-18T14:35:13.029Z,8.63
2018-03-18T14:37:41.442Z,10.43
2018-03-18T14:40:09.906Z,6.33
2018-03-18T14:42:38.308Z,6.10
2018-03-18T14:45:06.706Z,7.80
2018-03-18T14:47:35.149Z,6.20
2018-03-18T14:50:03.551Z,6.33
2018-03-18T14:52:31.945Z,9.63
2018-03-18T14:55:00.382Z,8.17
2018-03-18T14:57:28.774Z,5.73
2018-03-18T14:59:57.197Z,7.43
2018-03-18T15:02:25.659Z,5.47
2018-03-18T15:04:54.062Z,5.07
2018-03-18T15:07:22.485Z,13.00
2018-03-18T15:09:50.950Z,11.80
2018-03-18T15:12:19.376Z,10.70
2018-03-18T15:14:47.788Z,11.50
2018-03-18T15:17:16.250Z,17.63
2018-03-18T15:19:44.655Z,13.27
2018-03-18T15:22:13.064Z,8.80
2018-03-18T15:24:41.531Z,22.10
2018-03-18T15:27:09.952Z,11.90
2018-03-18T15:29:38.363Z,6.77
2018-03-18T15:32:06.834Z,10.40
2018-03-18T15:34:35.338Z,7.83
2018-03-18T15:37:03.777Z,8.17
2018-03-18T15:39:32.233Z,8.90
2018-03-18T15:42:00.634Z,5.40
2018-03-18T15:44:29.038Z,7.17
2018-03-18T15:46:57.666Z,5.53
2018-03-18T15:49:26.076Z,3.63
2018-03-18T15:51:54.503Z,4.57
2018-03-18T15:54:22.966Z,5.83
2018-03-18T15:56:51.390Z,5.40
2018-03-18T15:59:19.791Z,6.80
2018-03-18T16:01:48.230Z,7.90
2018-03-18T16:04:16.653Z,5.50
2018-03-18T16:06:45.063Z,8.63
2018-03-18T16:09:13.538Z,11.10
2018-03-18T16:11:41.947Z,9.10
2018-03-18T16:14:10.356Z,4.40
2018-03-18T16:16:38.798Z,8.50
2018-03-18T16:19:07.195Z,8.07
2018-03-18T16:21:35.607Z,4.70
2018-03-18T16:24:04.085Z,6.60
2018-03-18T16:26:32.502Z,7.97
2018-03-18T16:29:12.748Z,5.50
2018-03-18T16:31:41.145Z,8.23
2018-03-18T16:34:09.573Z,15.63
2018-03-18T16:36:38.045Z,10.83
2018-03-18T16:39:06.464Z,8.33
2018-03-18T16:41:34.873Z,10.80
2018-03-18T16:44:03.332Z,6.17
2018-03-18T16:46:31.729Z,7.30
2018-03-18T16:49:00.134Z,6.63
2018-03-18T16:51:28.588Z,6.30
2018-03-18T16:53:57.002Z,7.10
2018-03-18T16:56:25.412Z,7.20
2018-03-18T16:58:53.889Z,10.20
2018-03-18T17:01:22.374Z,14.40
2018-03-18T17:03:51.016Z,6.40
2018-03-18T17:06:19.454Z,9.50
2018-03-18T17:08:47.860Z,5.43
2018-03-18T17:11:16.283Z,11.87
2018-03-18T17:13:44.747Z,11.10
2018-03-18T17:16:13.166Z,8.37
2018-03-18T17:18:41.569Z,7.70
2018-03-18T17:21:10.027Z,7.60
2018-03-18T17:23:38.438Z,6.00
2018-03-18T17:26:06.856Z,4.27
2018-03-18T17:28:35.315Z,6.60
2018-03-18T17:31:03.735Z,7.17
2018-03-18T17:33:32.138Z,10.20
2018-03-18T17:36:00.591Z,4.60
2018-03-18T17:38:28.994Z,5.23
2018-03-18T17:40:57.421Z,5.93
2018-03-18T17:43:25.912Z,6.20
2018-03-18T17:46:06.023Z,5.77
2018-03-18T17:48:46.260Z,5.43
2018-03-18T17:51:26.398Z,7.27
2018-03-18T17:54:06.616Z,6.60
2018-03-18T17:56:36.834Z,8.57
2018-03-18T17:59:05.248Z,8.97
2018-03-18T18:01:33.717Z,5.40
2018-03-18T18:04:02.138Z,6.00
2018-03-18T18:06:30.543Z,6.53
2018-03-18T18:08:59.006Z,8.43
2018-03-18T18:11:27.447Z,4.00
2018-03-18T18:13:55.862Z,6.07
2018-03-18T18:16:24.319Z,8.17
2018-03-18T18:18:52.720Z,6.83
2018-03-18T18:21:21.126Z,8.90
2018-03-18T18:23:49.580Z,7.23
2018-03-18T18:26:17.987Z,6.63
2018-03-18T18:28:46.437Z,10.50
2018-03-18T18:31:14.894Z,8.77
2018-03-18T18:33:43.300Z,12.30
2018-03-18T18:36:11.728Z,14.23
2018-03-18T18:38:40.194Z,7.23
2018-03-18T18:41:08.632Z,6.73
2018-03-18T18:43:37.034Z,7.23
2018-03-18T18:46:05.478Z,9.70
2018-03-18T18:48:33.890Z,10.93
2018-03-18T18:51:02.328Z,7.37
2018-03-18T18:53:30.795Z,8.03
2018-03-18T18:55:59.208Z,8.03
2018-03-18T18:58:27.656Z,6.33
2018-03-18T19:00:56.110Z,6.47
2018-03-18T19:03:24.529Z,12.23
2018-03-18T19:05:52.947Z,10.63
2018-03-18T19:08:21.403Z,5.50
2018-03-18T19:10:49.870Z,6.87
2018-03-18T19:13:18.285Z,8.50
2018-03-18T19:15:46.736Z,4.73
2018-03-18T19:18:15.156Z,7.43
2018-03-18T19:20:43.558Z,9.10
2018-03-18T19:23:12.009Z,8.23
2018-03-18T19:25:40.419Z,6.70
2018-03-18T19:28:08.832Z,9.03
2018-03-18T19:30:37.306Z,6.87
2018-03-18T19:33:05.721Z,6.07
2018-03-18T19:35:34.139Z,5.60
2018-03-18T19:38:02.588Z,5.00
2018-03-18T19:40:30.990Z,6.93
2018-03-18T19:42:59.422Z,6.67
2018-03-18T19:45:27.939Z,8.20
2018-03-18T19:47:56.332Z,7.10
2018-03-18T19:50:24.740Z,9.23
2018-03-18T19:52:53.217Z,8.57
2018-03-18T19:55:21.629Z,4.73
2018-03-18T19:57:50.034Z,6.87
2018-03-18T20:00:18.499Z,10.10
2018-03-18T20:02:46.915Z,16.27
2018-03-18T20:05:15.341Z,11.63
2018-03-18T20:07:43.793Z,8.30
2018-03-18T20:10:12.203Z,8.97
2018-03-18T20:12:40.607Z,9.77
2018-03-18T20:15:09.062Z,8.27
2018-03-18T20:17:37.471Z,12.30
2018-03-18T20:20:09.090Z,17.07
2018-03-18T20:22:37.599Z,5.70
2018-03-18T20:25:06.023Z,10.27
2018-03-18T20:27:34.452Z,11.03
2018-03-18T20:30:02.916Z,10.73
2018-03-18T20:32:31.350Z,10.57
2018-03-18T20:34:59.750Z,8.03
2018-03-18T20:37:28.206Z,6.47
2018-03-18T20:39:56.625Z,13.67
2018-03-18T20:42:25.064Z,8.87
2018-03-18T20:44:53.505Z,9.27
2018-03-18T20:47:21.914Z,8.60
2018-03-18T20:49:50.328Z,8.73
2018-03-18T20:52:18.880Z,8.10
2018-03-18T20:54:47.283Z,7.90
2018-03-18T20:57:15.788Z,12.77
2018-03-18T20:59:44.260Z,7.87
2018-03-18T21:02:12.676Z,7.67
2018-03-18T21:04:41.084Z,10.40
2018-03-18T21:07:09.531Z,9.53
2018-03-18T21:09:37.943Z,9.23
2018-03-18T21:12:07.615Z,6.00
2018-03-18T21:14:36.145Z,7.87
2018-03-18T21:17:04.555Z,10.63
2018-03-18T21:19:32.958Z,7.60
2018-03-18T21:22:01.782Z,10.33
2018-03-18T21:24:30.196Z,10.00
2018-03-18T21:26:58.608Z,8.20
2018-03-18T21:29:27.050Z,8.23
2018-03-18T21:31:55.460Z,5.43
2018-03-18T21:34:43.691Z,5.17
2018-03-18T21:37:12.124Z,6.30
2018-03-18T21:39:40.540Z,8.23
2018-03-18T21:42:09.012Z,9.83
2018-03-18T21:44:37.422Z,7.20
2018-03-18T21:47:05.840Z,10.90
2018-03-18T21:49:34.304Z,7.40
2018-03-18T21:52:02.718Z,9.73
2018-03-18T21:54:31.133Z,7.07
2018-03-18T21:56:59.596Z,5.40
2018-03-18T21:59:28.002Z,4.53
2018-03-18T22:01:56.419Z,10.43
2018-03-18T22:04:24.872Z,7.13
2018-03-18T22:06:53.288Z,8.03
2018-03-18T22:09:21.705Z,7.07
2018-03-18T22:11:50.148Z,8.27
2018-03-18T22:14:18.560Z,7.80
2018-03-18T22:16:46.958Z,9.57
2018-03-18T22:19:15.424Z,5.50
2018-03-18T22:21:43.841Z,9.70
2018-03-18T22:24:12.256Z,6.37
2018-03-18T22:26:40.717Z,7.47
2018-03-18T22:29:09.121Z,5.97
2018-03-18T22:31:37.558Z,6.67
2018-03-18T22:34:06.006Z,8.23
2018-03-18T22:36:34.416Z,6.60
2018-03-18T22:39:02.830Z,7.57
2018-03-18T22:41:31.275Z,7.00
2018-03-18T22:43:59.684Z,3.77
2018-03-18T22:46:28.089Z,9.87
2018-03-18T22:48:56.564Z,8.13
2018-03-18T22:51:24.970Z,5.40
2018-03-18T22:53:53.384Z,8.53
2018-03-18T22:56:21.839Z,8.10
2018-03-18T22:58:50.237Z,6.30
2018-03-18T23:01:18.659Z,10.93
2018-03-18T23:03:47.142Z,6.63
2018-03-18T23:06:15.560Z,15.03
2018-03-18T23:08:43.970Z,12.83
2018-03-18T23:11:12.427Z,14.27
2018-03-18T23:13:40.840Z,19.20
2018-03-18T23:16:09.271Z,31.20
2018-03-18T23:18:37.740Z,20.37
2018-03-18T23:21:06.160Z,9.73
2018-03-18T23:23:34.574Z,12.87
2018-03-18T23:26:03.032Z,7.10
2018-03-18T23:28:31.441Z,10.83
2018-03-18T23:30:59.838Z,7.53
2018-03-18T23:33:28.278Z,11.87
2018-03-18T23:35:56.692Z,7.03
2018-03-18T23:38:25.114Z,6.33
2018-03-18T23:40:53.584Z,8.80
2018-03-18T23:43:22.000Z,7.57
2018-03-18T23:45:50.394Z,8.10
2018-03-18T23:48:18.847Z,9.70
2018-03-18T23:50:49.118Z,8.37
2018-03-18T23:53:17.528Z,9.17
2018-03-18T23:55:45.966Z,6.90
2018-03-18T23:58:14.401Z,7.73
